sensor_id;sensor_type;location;lat;lon;timestamp;P1;durP1;ratioP1;P2;durP2;ratioP2
434;SDS011;204;48.942;9.256;2023-03-23T00:01:03;3.00;;;2.80;;
434;SDS011;204;48.942;9.256;2023-03-23T00:03:30;2.58;;;2.38;;
434;SDS011;204;48.942;9.256;2023-03-23T00:05:57;2.25;;;2.05;;
434;SDS011;204;48.942;9.256;2023-03-23T00:08:31;1.60;;;1.55;;
434;SDS011;204;48.942;9.256;2023-03-23T00:10:58;2.25;;;1.90;;
434;SDS011;204;48.942;9.256;2023-03-23T00:13:26;6.88;;;1.60;;
434;SDS011;204;48.942;9.256;2023-03-23T00:15:53;2.20;;;2.00;;
434;SDS011;204;48.942;9.256;2023-03-23T00:18:19;2.60;;;1.70;;
434;SDS011;204;48.942;9.256;2023-03-23T00:20:48;1.73;;;1.45;;
434;SDS011;204;48.942;9.256;2023-03-23T00:23:18;1.73;;;1.42;;
434;SDS011;204;48.942;9.256;2023-03-23T00:25:45;3.25;;;1.73;;
434;SDS011;204;48.942;9.256;2023-03-23T00:28:15;1.67;;;1.40;;
434;SDS011;204;48.942;9.256;2023-03-23T00:30:42;1.60;;;1.50;;
434;SDS011;204;48.942;9.256;2023-03-23T00:33:09;3.58;;;1.80;;
434;SDS011;204;48.942;9.256;2023-03-23T00:35:37;2.22;;;1.30;;
434;SDS011;204;48.942;9.256;2023-03-23T00:38:04;1.75;;;1.60;;
434;SDS011;204;48.942;9.256;2023-03-23T00:40:30;1.53;;;1.43;;
434;SDS011;204;48.942;9.256;2023-03-23T00:43:00;3.58;;;1.30;;
434;SDS011;204;48.942;9.256;2023-03-23T00:45:28;1.60;;;1.42;;
434;SDS011;204;48.942;9.256;2023-03-23T00:47:54;1.03;;;1.00;;
434;SDS011;204;48.942;9.256;2023-03-23T00:50:19;2.87;;;1.60;;
434;SDS011;204;48.942;9.256;2023-03-23T00:52:45;2.50;;;1.53;;
434;SDS011;204;48.942;9.256;2023-03-23T00:55:10;3.23;;;1.47;;
434;SDS011;204;48.942;9.256;2023-03-23T00:57:36;2.07;;;1.20;;
434;SDS011;204;48.942;9.256;2023-03-23T01:00:02;2.13;;;1.20;;
434;SDS011;204;48.942;9.256;2023-03-23T01:02:33;2.03;;;1.42;;
434;SDS011;204;48.942;9.256;2023-03-23T01:05:00;4.03;;;1.88;;
434;SDS011;204;48.942;9.256;2023-03-23T01:07:28;1.77;;;1.45;;
434;SDS011;204;48.942;9.256;2023-03-23T01:09:56;1.38;;;1.27;;
434;SDS011;204;48.942;9.256;2023-03-23T01:12:22;1.60;;;1.15;;
434;SDS011;204;48.942;9.256;2023-03-23T01:14:49;3.28;;;1.50;;
434;SDS011;204;48.942;9.256;2023-03-23T01:17:16;1.48;;;1.38;;
434;SDS011;204;48.942;9.256;2023-03-23T01:19:41;1.50;;;1.43;;
434;SDS011;204;48.942;9.256;2023-03-23T01:22:07;1.53;;;1.50;;
434;SDS011;204;48.942;9.256;2023-03-23T01:24:33;1.90;;;1.83;;
434;SDS011;204;48.942;9.256;2023-03-23T01:26:58;2.07;;;1.93;;
434;SDS011;204;48.942;9.256;2023-03-23T01:29:31;1.83;;;1.80;;
434;SDS011;204;48.942;9.256;2023-03-23T01:31:59;3.03;;;1.60;;
434;SDS011;204;48.942;9.256;2023-03-23T01:34:25;3.43;;;2.10;;
434;SDS011;204;48.942;9.256;2023-03-23T01:36:51;1.90;;;1.60;;
434;SDS011;204;48.942;9.256;2023-03-23T01:39:16;1.77;;;1.67;;
434;SDS011;204;48.942;9.256;2023-03-23T01:41:42;2.20;;;2.00;;
434;SDS011;204;48.942;9.256;2023-03-23T01:45:09;2.77;;;2.20;;
434;SDS011;204;48.942;9.256;2023-03-23T01:46:56;1.98;;;1.60;;
434;SDS011;204;48.942;9.256;2023-03-23T01:49:24;1.92;;;1.75;;
434;SDS011;204;48.942;9.256;2023-03-23T01:51:56;2.70;;;2.00;;
434;SDS011;204;48.942;9.256;2023-03-23T01:54:29;2.05;;;1.70;;
434;SDS011;204;48.942;9.256;2023-03-23T01:56:59;2.58;;;1.70;;
434;SDS011;204;48.942;9.256;2023-03-23T01:59:35;1.77;;;1.67;;
434;SDS011;204;48.942;9.256;2023-03-23T02:02:01;3.27;;;1.67;;
434;SDS011;204;48.942;9.256;2023-03-23T02:04:27;1.60;;;1.40;;
434;SDS011;204;48.942;9.256;2023-03-23T02:06:54;2.42;;;2.10;;
434;SDS011;204;48.942;9.256;2023-03-23T02:09:22;2.50;;;1.42;;
434;SDS011;204;48.942;9.256;2023-03-23T02:11:51;1.80;;;1.60;;
434;SDS011;204;48.942;9.256;2023-03-23T02:14:19;2.47;;;1.92;;
434;SDS011;204;48.942;9.256;2023-03-23T02:24:57;2.92;;;2.03;;
434;SDS011;204;48.942;9.256;2023-03-23T02:35:39;5.38;;;2.10;;
434;SDS011;204;48.942;9.256;2023-03-23T02:38:28;2.78;;;1.63;;
434;SDS011;204;48.942;9.256;2023-03-23T02:40:59;3.15;;;1.70;;
434;SDS011;204;48.942;9.256;2023-03-23T02:43:28;2.17;;;1.92;;
434;SDS011;204;48.942;9.256;2023-03-23T02:45:59;3.30;;;1.90;;
434;SDS011;204;48.942;9.256;2023-03-23T02:48:27;2.95;;;2.38;;
434;SDS011;204;48.942;9.256;2023-03-23T02:50:55;2.65;;;2.40;;
434;SDS011;204;48.942;9.256;2023-03-23T02:53:23;3.28;;;2.28;;
434;SDS011;204;48.942;9.256;2023-03-23T02:55:51;2.28;;;1.63;;
434;SDS011;204;48.942;9.256;2023-03-23T02:58:20;3.72;;;2.10;;
434;SDS011;204;48.942;9.256;2023-03-23T03:00:47;2.55;;;1.83;;
434;SDS011;204;48.942;9.256;2023-03-23T03:03:15;3.28;;;2.05;;
434;SDS011;204;48.942;9.256;2023-03-23T03:05:48;1.75;;;1.63;;
434;SDS011;204;48.942;9.256;2023-03-23T03:11:08;2.78;;;1.58;;
434;SDS011;204;48.942;9.256;2023-03-23T03:13:53;2.13;;;1.40;;
434;SDS011;204;48.942;9.256;2023-03-23T03:16:36;1.70;;;1.60;;
434;SDS011;204;48.942;9.256;2023-03-23T03:21:50;2.35;;;1.70;;
434;SDS011;204;48.942;9.256;2023-03-23T03:24:19;2.35;;;1.98;;
434;SDS011;204;48.942;9.256;2023-03-23T03:26:48;2.03;;;1.75;;
434;SDS011;204;48.942;9.256;2023-03-23T03:29:17;3.20;;;2.00;;
434;SDS011;204;48.942;9.256;2023-03-23T03:31:46;3.53;;;1.85;;
434;SDS011;204;48.942;9.256;2023-03-23T03:34:14;3.35;;;1.88;;
434;SDS011;204;48.942;9.256;2023-03-23T03:36:42;1.92;;;1.70;;
434;SDS011;204;48.942;9.256;2023-03-23T03:39:12;1.90;;;1.80;;
434;SDS011;204;48.942;9.256;2023-03-23T03:41:41;1.73;;;1.70;;
434;SDS011;204;48.942;9.256;2023-03-23T03:44:07;2.47;;;1.55;;
434;SDS011;204;48.942;9.256;2023-03-23T03:46:34;3.33;;;2.08;;
434;SDS011;204;48.942;9.256;2023-03-23T03:49:01;2.10;;;1.98;;
434;SDS011;204;48.942;9.256;2023-03-23T03:51:29;2.90;;;1.95;;
434;SDS011;204;48.942;9.256;2023-03-23T03:53:55;2.25;;;1.60;;
434;SDS011;204;48.942;9.256;2023-03-23T03:56:21;3.33;;;1.97;;
434;SDS011;204;48.942;9.256;2023-03-23T03:58:48;2.40;;;2.20;;
434;SDS011;204;48.942;9.256;2023-03-23T04:01:15;2.30;;;1.73;;
434;SDS011;204;48.942;9.256;2023-03-23T04:03:42;2.20;;;1.60;;
434;SDS011;204;48.942;9.256;2023-03-23T04:06:09;2.20;;;1.90;;
434;SDS011;204;48.942;9.256;2023-03-23T04:08:37;1.90;;;1.55;;
434;SDS011;204;48.942;9.256;2023-03-23T04:11:04;2.97;;;1.92;;
434;SDS011;204;48.942;9.256;2023-03-23T04:13:30;2.45;;;1.98;;
434;SDS011;204;48.942;9.256;2023-03-23T04:15:56;2.70;;;1.80;;
434;SDS011;204;48.942;9.256;2023-03-23T04:18:21;2.17;;;2.00;;
434;SDS011;204;48.942;9.256;2023-03-23T04:20:49;2.70;;;2.10;;
434;SDS011;204;48.942;9.256;2023-03-23T04:23:15;3.30;;;2.10;;
434;SDS011;204;48.942;9.256;2023-03-23T04:25:46;2.83;;;2.50;;
434;SDS011;204;48.942;9.256;2023-03-23T04:28:13;2.45;;;2.17;;
434;SDS011;204;48.942;9.256;2023-03-23T04:30:41;2.30;;;2.10;;
434;SDS011;204;48.942;9.256;2023-03-23T04:33:08;2.22;;;2.05;;
434;SDS011;204;48.942;9.256;2023-03-23T04:35:39;3.63;;;2.22;;
434;SDS011;204;48.942;9.256;2023-03-23T04:38:06;3.03;;;1.80;;
434;SDS011;204;48.942;9.256;2023-03-23T04:40:37;2.50;;;1.73;;
434;SDS011;204;48.942;9.256;2023-03-23T04:43:03;2.42;;;2.22;;
434;SDS011;204;48.942;9.256;2023-03-23T04:45:30;2.35;;;2.15;;
434;SDS011;204;48.942;9.256;2023-03-23T04:47:57;1.60;;;1.50;;
434;SDS011;204;48.942;9.256;2023-03-23T04:50:24;2.00;;;1.90;;
434;SDS011;204;48.942;9.256;2023-03-23T04:52:56;2.33;;;1.75;;
434;SDS011;204;48.942;9.256;2023-03-23T04:55:23;2.08;;;1.85;;
434;SDS011;204;48.942;9.256;2023-03-23T04:57:50;2.38;;;2.20;;
434;SDS011;204;48.942;9.256;2023-03-23T05:00:16;3.10;;;1.80;;
434;SDS011;204;48.942;9.256;2023-03-23T05:02:46;5.32;;;2.55;;
434;SDS011;204;48.942;9.256;2023-03-23T05:05:16;2.60;;;2.40;;
434;SDS011;204;48.942;9.256;2023-03-23T05:07:42;2.38;;;1.92;;
434;SDS011;204;48.942;9.256;2023-03-23T05:10:08;3.00;;;2.13;;
434;SDS011;204;48.942;9.256;2023-03-23T05:12:36;4.50;;;3.22;;
434;SDS011;204;48.942;9.256;2023-03-23T05:15:02;3.90;;;3.20;;
434;SDS011;204;48.942;9.256;2023-03-23T05:17:28;4.60;;;2.55;;
434;SDS011;204;48.942;9.256;2023-03-23T05:19:55;2.78;;;2.25;;
434;SDS011;204;48.942;9.256;2023-03-23T05:22:21;2.40;;;2.00;;
434;SDS011;204;48.942;9.256;2023-03-23T05:24:47;2.58;;;1.80;;
434;SDS011;204;48.942;9.256;2023-03-23T05:27:16;1.95;;;1.88;;
434;SDS011;204;48.942;9.256;2023-03-23T05:29:43;2.03;;;1.90;;
434;SDS011;204;48.942;9.256;2023-03-23T05:32:16;2.40;;;2.20;;
434;SDS011;204;48.942;9.256;2023-03-23T05:34:42;2.20;;;1.93;;
434;SDS011;204;48.942;9.256;2023-03-23T05:37:08;2.35;;;2.15;;
434;SDS011;204;48.942;9.256;2023-03-23T05:39:34;1.67;;;1.60;;
434;SDS011;204;48.942;9.256;2023-03-23T05:42:01;1.90;;;1.80;;
434;SDS011;204;48.942;9.256;2023-03-23T05:44:28;3.03;;;2.20;;
434;SDS011;204;48.942;9.256;2023-03-23T05:46:54;3.10;;;2.70;;
434;SDS011;204;48.942;9.256;2023-03-23T05:49:20;2.53;;;2.40;;
434;SDS011;204;48.942;9.256;2023-03-23T05:51:46;5.10;;;3.00;;
434;SDS011;204;48.942;9.256;2023-03-23T05:54:12;2.90;;;2.25;;
434;SDS011;204;48.942;9.256;2023-03-23T05:56:39;2.40;;;2.00;;
434;SDS011;204;48.942;9.256;2023-03-23T05:59:05;6.03;;;2.60;;
434;SDS011;204;48.942;9.256;2023-03-23T06:01:30;3.90;;;2.67;;
434;SDS011;204;48.942;9.256;2023-03-23T06:03:56;4.55;;;3.50;;
434;SDS011;204;48.942;9.256;2023-03-23T06:06:24;3.13;;;2.75;;
434;SDS011;204;48.942;9.256;2023-03-23T06:08:54;4.15;;;2.25;;
434;SDS011;204;48.942;9.256;2023-03-23T06:11:21;3.28;;;2.00;;
434;SDS011;204;48.942;9.256;2023-03-23T06:13:48;4.07;;;2.10;;
434;SDS011;204;48.942;9.256;2023-03-23T06:16:14;4.53;;;2.37;;
434;SDS011;204;48.942;9.256;2023-03-23T06:18:39;3.90;;;2.90;;
434;SDS011;204;48.942;9.256;2023-03-23T06:21:05;5.73;;;2.70;;
434;SDS011;204;48.942;9.256;2023-03-23T06:23:32;4.70;;;3.45;;
434;SDS011;204;48.942;9.256;2023-03-23T06:26:02;4.85;;;3.50;;
434;SDS011;204;48.942;9.256;2023-03-23T06:28:30;5.68;;;3.58;;
434;SDS011;204;48.942;9.256;2023-03-23T06:31:00;4.38;;;3.65;;
434;SDS011;204;48.942;9.256;2023-03-23T06:33:28;11.63;;;6.85;;
434;SDS011;204;48.942;9.256;2023-03-23T06:35:53;6.43;;;4.20;;
434;SDS011;204;48.942;9.256;2023-03-23T06:38:20;2.92;;;2.80;;
434;SDS011;204;48.942;9.256;2023-03-23T06:40:46;3.37;;;2.60;;
434;SDS011;204;48.942;9.256;2023-03-23T06:43:13;8.18;;;4.53;;
434;SDS011;204;48.942;9.256;2023-03-23T06:45:39;8.20;;;3.87;;
434;SDS011;204;48.942;9.256;2023-03-23T06:48:05;4.07;;;3.03;;
434;SDS011;204;48.942;9.256;2023-03-23T06:50:31;8.70;;;3.00;;
434;SDS011;204;48.942;9.256;2023-03-23T06:52:57;3.70;;;2.60;;
434;SDS011;204;48.942;9.256;2023-03-23T06:55:23;4.60;;;2.30;;
434;SDS011;204;48.942;9.256;2023-03-23T06:57:48;3.27;;;2.73;;
434;SDS011;204;48.942;9.256;2023-03-23T07:00:14;3.10;;;1.97;;
434;SDS011;204;48.942;9.256;2023-03-23T07:02:40;5.23;;;2.23;;
434;SDS011;204;48.942;9.256;2023-03-23T07:05:07;2.83;;;2.05;;
434;SDS011;204;48.942;9.256;2023-03-23T07:07:34;1.63;;;1.60;;
434;SDS011;204;48.942;9.256;2023-03-23T07:10:01;4.63;;;2.67;;
434;SDS011;204;48.942;9.256;2023-03-23T07:12:28;3.90;;;2.63;;
434;SDS011;204;48.942;9.256;2023-03-23T07:14:53;3.30;;;2.70;;
434;SDS011;204;48.942;9.256;2023-03-23T07:17:19;3.90;;;2.55;;
434;SDS011;204;48.942;9.256;2023-03-23T07:19:45;4.77;;;2.73;;
434;SDS011;204;48.942;9.256;2023-03-23T07:22:11;11.67;;;6.27;;
434;SDS011;204;48.942;9.256;2023-03-23T07:24:37;6.67;;;5.33;;
434;SDS011;204;48.942;9.256;2023-03-23T07:27:02;9.07;;;5.10;;
434;SDS011;204;48.942;9.256;2023-03-23T07:29:28;5.97;;;4.55;;
434;SDS011;204;48.942;9.256;2023-03-23T07:31:54;12.90;;;10.00;;
434;SDS011;204;48.942;9.256;2023-03-23T07:34:20;11.47;;;6.73;;
434;SDS011;204;48.942;9.256;2023-03-23T07:36:46;5.40;;;4.70;;
434;SDS011;204;48.942;9.256;2023-03-23T07:39:12;2.93;;;2.10;;
434;SDS011;204;48.942;9.256;2023-03-23T07:41:38;3.53;;;2.70;;
434;SDS011;204;48.942;9.256;2023-03-23T07:44:03;7.03;;;2.77;;
434;SDS011;204;48.942;9.256;2023-03-23T07:46:30;3.83;;;2.33;;
434;SDS011;204;48.942;9.256;2023-03-23T07:48:56;2.75;;;1.80;;
434;SDS011;204;48.942;9.256;2023-03-23T07:51:22;1.77;;;1.67;;
434;SDS011;204;48.942;9.256;2023-03-23T07:53:49;1.90;;;1.60;;
434;SDS011;204;48.942;9.256;2023-03-23T07:56:16;2.25;;;1.90;;
434;SDS011;204;48.942;9.256;2023-03-23T07:58:44;3.40;;;2.30;;
434;SDS011;204;48.942;9.256;2023-03-23T08:01:10;2.60;;;1.90;;
434;SDS011;204;48.942;9.256;2023-03-23T08:03:37;1.30;;;1.20;;
434;SDS011;204;48.942;9.256;2023-03-23T08:06:03;5.97;;;2.43;;
434;SDS011;204;48.942;9.256;2023-03-23T08:08:29;2.23;;;2.00;;
434;SDS011;204;48.942;9.256;2023-03-23T08:10:55;2.37;;;1.83;;
434;SDS011;204;48.942;9.256;2023-03-23T08:13:20;3.57;;;1.73;;
434;SDS011;204;48.942;9.256;2023-03-23T08:15:46;1.97;;;1.90;;
434;SDS011;204;48.942;9.256;2023-03-23T08:18:12;2.93;;;2.20;;
434;SDS011;204;48.942;9.256;2023-03-23T08:20:37;5.10;;;2.20;;
434;SDS011;204;48.942;9.256;2023-03-23T08:23:03;3.43;;;2.53;;
434;SDS011;204;48.942;9.256;2023-03-23T08:25:29;2.40;;;2.00;;
434;SDS011;204;48.942;9.256;2023-03-23T08:27:58;3.73;;;1.87;;
434;SDS011;204;48.942;9.256;2023-03-23T08:30:26;3.60;;;1.83;;
434;SDS011;204;48.942;9.256;2023-03-23T08:32:54;1.90;;;1.40;;
434;SDS011;204;48.942;9.256;2023-03-23T08:35:21;3.27;;;2.07;;
434;SDS011;204;48.942;9.256;2023-03-23T08:37:47;3.27;;;1.40;;
434;SDS011;204;48.942;9.256;2023-03-23T08:40:16;1.87;;;1.80;;
434;SDS011;204;48.942;9.256;2023-03-23T08:42:44;2.47;;;1.70;;
434;SDS011;204;48.942;9.256;2023-03-23T08:45:13;1.90;;;1.90;;
434;SDS011;204;48.942;9.256;2023-03-23T08:47:41;1.60;;;1.50;;
434;SDS011;204;48.942;9.256;2023-03-23T08:50:13;1.83;;;1.60;;
434;SDS011;204;48.942;9.256;2023-03-23T08:52:40;2.00;;;1.73;;
434;SDS011;204;48.942;9.256;2023-03-23T08:55:06;2.30;;;1.47;;
434;SDS011;204;48.942;9.256;2023-03-23T08:57:33;2.20;;;1.73;;
434;SDS011;204;48.942;9.256;2023-03-23T09:00:00;1.80;;;1.53;;
434;SDS011;204;48.942;9.256;2023-03-23T09:02:41;6.17;;;2.17;;
434;SDS011;204;48.942;9.256;2023-03-23T09:05:08;1.85;;;1.60;;
434;SDS011;204;48.942;9.256;2023-03-23T09:07:38;1.90;;;1.88;;
434;SDS011;204;48.942;9.256;2023-03-23T09:10:05;5.15;;;2.10;;
434;SDS011;204;48.942;9.256;2023-03-23T09:12:31;2.10;;;1.73;;
434;SDS011;204;48.942;9.256;2023-03-23T09:14:56;2.00;;;1.60;;
434;SDS011;204;48.942;9.256;2023-03-23T09:17:22;2.77;;;1.80;;
434;SDS011;204;48.942;9.256;2023-03-23T09:19:48;2.53;;;1.80;;
434;SDS011;204;48.942;9.256;2023-03-23T09:22:13;3.33;;;1.80;;
434;SDS011;204;48.942;9.256;2023-03-23T09:24:40;4.00;;;1.70;;
434;SDS011;204;48.942;9.256;2023-03-23T09:27:06;2.90;;;2.10;;
434;SDS011;204;48.942;9.256;2023-03-23T09:29:32;2.93;;;1.87;;
434;SDS011;204;48.942;9.256;2023-03-23T09:31:58;1.77;;;1.40;;
434;SDS011;204;48.942;9.256;2023-03-23T09:34:24;1.77;;;1.70;;
434;SDS011;204;48.942;9.256;2023-03-23T09:36:50;2.03;;;1.80;;
434;SDS011;204;48.942;9.256;2023-03-23T09:39:16;5.28;;;2.13;;
434;SDS011;204;48.942;9.256;2023-03-23T09:47:23;1.30;;;1.20;;
434;SDS011;204;48.942;9.256;2023-03-23T09:55:07;4.10;;;1.15;;
434;SDS011;204;48.942;9.256;2023-03-23T09:57:39;3.58;;;1.13;;
434;SDS011;204;48.942;9.256;2023-03-23T10:00:43;3.70;;;1.58;;
434;SDS011;204;48.942;9.256;2023-03-23T10:05:47;2.08;;;1.70;;
434;SDS011;204;48.942;9.256;2023-03-23T10:08:15;1.63;;;1.27;;
434;SDS011;204;48.942;9.256;2023-03-23T10:16:24;1.40;;;1.30;;
434;SDS011;204;48.942;9.256;2023-03-23T10:19:10;2.30;;;1.45;;
434;SDS011;204;48.942;9.256;2023-03-23T10:21:41;1.10;;;1.10;;
434;SDS011;204;48.942;9.256;2023-03-23T10:24:14;1.80;;;1.48;;
434;SDS011;204;48.942;9.256;2023-03-23T10:29:24;3.13;;;1.10;;
434;SDS011;204;48.942;9.256;2023-03-23T10:34:48;2.40;;;1.10;;
434;SDS011;204;48.942;9.256;2023-03-23T10:37:37;1.53;;;1.23;;
434;SDS011;204;48.942;9.256;2023-03-23T10:40:19;1.43;;;1.33;;
434;SDS011;204;48.942;9.256;2023-03-23T10:42:49;1.60;;;1.57;;
434;SDS011;204;48.942;9.256;2023-03-23T10:45:21;2.03;;;1.43;;
434;SDS011;204;48.942;9.256;2023-03-23T10:50:45;1.47;;;1.10;;
434;SDS011;204;48.942;9.256;2023-03-23T10:53:21;1.10;;;1.00;;
434;SDS011;204;48.942;9.256;2023-03-23T10:55:59;1.40;;;1.07;;
434;SDS011;204;48.942;9.256;2023-03-23T10:58:27;1.80;;;1.73;;
434;SDS011;204;48.942;9.256;2023-03-23T11:00:56;1.40;;;1.33;;
434;SDS011;204;48.942;9.256;2023-03-23T11:05:52;3.00;;;1.10;;
434;SDS011;204;48.942;9.256;2023-03-23T11:08:23;1.53;;;1.30;;
434;SDS011;204;48.942;9.256;2023-03-23T11:13:29;1.47;;;1.37;;
434;SDS011;204;48.942;9.256;2023-03-23T11:15:56;2.57;;;1.40;;
434;SDS011;204;48.942;9.256;2023-03-23T11:18:25;2.03;;;1.33;;
434;SDS011;204;48.942;9.256;2023-03-23T11:21:12;1.60;;;1.50;;
434;SDS011;204;48.942;9.256;2023-03-23T11:23:40;1.23;;;1.20;;
434;SDS011;204;48.942;9.256;2023-03-23T11:29:15;1.80;;;1.17;;
434;SDS011;204;48.942;9.256;2023-03-23T11:31:45;2.50;;;1.53;;
434;SDS011;204;48.942;9.256;2023-03-23T11:34:18;2.60;;;1.50;;
434;SDS011;204;48.942;9.256;2023-03-23T11:42:22;1.70;;;1.50;;
434;SDS011;204;48.942;9.256;2023-03-23T11:44:54;1.77;;;0.90;;
434;SDS011;204;48.942;9.256;2023-03-23T11:47:39;2.70;;;1.33;;
434;SDS011;204;48.942;9.256;2023-03-23T11:53:00;1.50;;;1.40;;
434;SDS011;204;48.942;9.256;2023-03-23T11:58:13;3.70;;;1.20;;
434;SDS011;204;48.942;9.256;2023-03-23T12:00:51;3.37;;;1.20;;
434;SDS011;204;48.942;9.256;2023-03-23T12:03:21;1.60;;;1.50;;
434;SDS011;204;48.942;9.256;2023-03-23T12:06:11;2.10;;;1.33;;
434;SDS011;204;48.942;9.256;2023-03-23T12:11:45;1.50;;;1.40;;
434;SDS011;204;48.942;9.256;2023-03-23T12:14:33;1.57;;;1.47;;
434;SDS011;204;48.942;9.256;2023-03-23T12:30:32;1.90;;;1.80;;
434;SDS011;204;48.942;9.256;2023-03-23T12:38:27;1.73;;;1.67;;
434;SDS011;204;48.942;9.256;2023-03-23T12:49:05;1.90;;;1.20;;
434;SDS011;204;48.942;9.256;2023-03-23T12:54:19;6.83;;;3.83;;
434;SDS011;204;48.942;9.256;2023-03-23T12:57:13;2.17;;;1.90;;
434;SDS011;204;48.942;9.256;2023-03-23T13:02:28;1.90;;;1.80;;
434;SDS011;204;48.942;9.256;2023-03-23T13:04:57;3.43;;;1.70;;
434;SDS011;204;48.942;9.256;2023-03-23T13:07:32;4.40;;;1.63;;
434;SDS011;204;48.942;9.256;2023-03-23T13:12:48;1.57;;;1.47;;
434;SDS011;204;48.942;9.256;2023-03-23T13:17:49;2.30;;;2.10;;
434;SDS011;204;48.942;9.256;2023-03-23T13:26:08;2.13;;;1.30;;
434;SDS011;204;48.942;9.256;2023-03-23T13:33:52;1.70;;;1.70;;
434;SDS011;204;48.942;9.256;2023-03-23T13:36:33;8.60;;;4.00;;
434;SDS011;204;48.942;9.256;2023-03-23T13:39:05;3.53;;;1.60;;
434;SDS011;204;48.942;9.256;2023-03-23T13:41:46;3.40;;;1.80;;
434;SDS011;204;48.942;9.256;2023-03-23T13:44:18;3.57;;;2.10;;
434;SDS011;204;48.942;9.256;2023-03-23T13:46:56;4.17;;;2.37;;
434;SDS011;204;48.942;9.256;2023-03-23T13:49:29;1.93;;;1.90;;
434;SDS011;204;48.942;9.256;2023-03-23T13:52:58;4.90;;;2.13;;
434;SDS011;204;48.942;9.256;2023-03-23T13:55:16;3.23;;;1.83;;
434;SDS011;204;48.942;9.256;2023-03-23T13:57:50;2.60;;;2.40;;
434;SDS011;204;48.942;9.256;2023-03-23T14:08:14;2.27;;;1.80;;
434;SDS011;204;48.942;9.256;2023-03-23T14:10:56;2.00;;;1.90;;
434;SDS011;204;48.942;9.256;2023-03-23T14:13:35;2.30;;;1.97;;
434;SDS011;204;48.942;9.256;2023-03-23T14:16:24;3.43;;;2.10;;
434;SDS011;204;48.942;9.256;2023-03-23T14:18:59;2.00;;;1.87;;
434;SDS011;204;48.942;9.256;2023-03-23T14:21:33;2.30;;;2.10;;
434;SDS011;204;48.942;9.256;2023-03-23T14:24:05;3.40;;;2.30;;
434;SDS011;204;48.942;9.256;2023-03-23T14:26:36;2.87;;;2.53;;
434;SDS011;204;48.942;9.256;2023-03-23T14:29:03;3.37;;;2.10;;
434;SDS011;204;48.942;9.256;2023-03-23T14:31:30;2.80;;;2.53;;
434;SDS011;204;48.942;9.256;2023-03-23T14:34:01;3.30;;;2.30;;
434;SDS011;204;48.942;9.256;2023-03-23T14:36:29;4.40;;;3.03;;
434;SDS011;204;48.942;9.256;2023-03-23T14:38:58;2.83;;;2.63;;
434;SDS011;204;48.942;9.256;2023-03-23T14:41:30;2.80;;;2.03;;
434;SDS011;204;48.942;9.256;2023-03-23T14:43:58;3.87;;;2.17;;
434;SDS011;204;48.942;9.256;2023-03-23T14:46:25;3.63;;;2.57;;
434;SDS011;204;48.942;9.256;2023-03-23T14:48:52;2.47;;;1.93;;
434;SDS011;204;48.942;9.256;2023-03-23T14:51:18;2.27;;;2.10;;
434;SDS011;204;48.942;9.256;2023-03-23T14:53:45;4.70;;;2.67;;
434;SDS011;204;48.942;9.256;2023-03-23T14:56:16;2.60;;;2.10;;
434;SDS011;204;48.942;9.256;2023-03-23T14:58:47;2.47;;;2.37;;
434;SDS011;204;48.942;9.256;2023-03-23T15:01:18;2.00;;;1.90;;
434;SDS011;204;48.942;9.256;2023-03-23T15:04:11;3.50;;;2.20;;
434;SDS011;204;48.942;9.256;2023-03-23T15:07:09;2.93;;;1.83;;
434;SDS011;204;48.942;9.256;2023-03-23T15:09:34;3.27;;;2.27;;
434;SDS011;204;48.942;9.256;2023-03-23T15:12:06;2.67;;;2.30;;
434;SDS011;204;48.942;9.256;2023-03-23T15:14:46;3.33;;;1.90;;
434;SDS011;204;48.942;9.256;2023-03-23T15:17:21;3.27;;;2.40;;
434;SDS011;204;48.942;9.256;2023-03-23T15:19:49;6.40;;;1.90;;
434;SDS011;204;48.942;9.256;2023-03-23T15:22:26;1.73;;;1.63;;
434;SDS011;204;48.942;9.256;2023-03-23T15:25:08;2.70;;;2.50;;
434;SDS011;204;48.942;9.256;2023-03-23T15:27:44;2.60;;;2.40;;
434;SDS011;204;48.942;9.256;2023-03-23T15:32:48;2.40;;;2.20;;
434;SDS011;204;48.942;9.256;2023-03-23T15:35:25;6.43;;;3.30;;
434;SDS011;204;48.942;9.256;2023-03-23T15:37:58;5.57;;;2.40;;
434;SDS011;204;48.942;9.256;2023-03-23T15:40:32;4.27;;;2.17;;
434;SDS011;204;48.942;9.256;2023-03-23T15:43:34;4.93;;;2.20;;
434;SDS011;204;48.942;9.256;2023-03-23T15:46:00;4.27;;;3.50;;
434;SDS011;204;48.942;9.256;2023-03-23T15:48:49;7.23;;;3.47;;
434;SDS011;204;48.942;9.256;2023-03-23T15:51:32;4.43;;;2.40;;
434;SDS011;204;48.942;9.256;2023-03-23T15:53:58;3.47;;;2.93;;
434;SDS011;204;48.942;9.256;2023-03-23T15:56:24;7.13;;;2.43;;
434;SDS011;204;48.942;9.256;2023-03-23T15:58:50;4.70;;;2.33;;
434;SDS011;204;48.942;9.256;2023-03-23T16:01:20;7.93;;;2.90;;
434;SDS011;204;48.942;9.256;2023-03-23T16:03:52;4.60;;;2.87;;
434;SDS011;204;48.942;9.256;2023-03-23T16:06:30;10.40;;;3.47;;
434;SDS011;204;48.942;9.256;2023-03-23T16:08:57;4.40;;;2.53;;
434;SDS011;204;48.942;9.256;2023-03-23T16:11:25;9.90;;;3.00;;
434;SDS011;204;48.942;9.256;2023-03-23T16:13:53;6.72;;;3.00;;
434;SDS011;204;48.942;9.256;2023-03-23T16:16:24;6.83;;;3.43;;
434;SDS011;204;48.942;9.256;2023-03-23T16:18:58;7.27;;;3.97;;
434;SDS011;204;48.942;9.256;2023-03-23T16:21:24;9.17;;;3.73;;
434;SDS011;204;48.942;9.256;2023-03-23T16:23:50;10.83;;;4.20;;
434;SDS011;204;48.942;9.256;2023-03-23T16:26:16;4.43;;;3.00;;
434;SDS011;204;48.942;9.256;2023-03-23T16:28:42;3.67;;;2.60;;
434;SDS011;204;48.942;9.256;2023-03-23T16:31:08;4.30;;;2.50;;
434;SDS011;204;48.942;9.256;2023-03-23T16:33:34;4.70;;;3.57;;
434;SDS011;204;48.942;9.256;2023-03-23T16:36:00;4.10;;;2.92;;
434;SDS011;204;48.942;9.256;2023-03-23T16:38:27;7.18;;;3.30;;
434;SDS011;204;48.942;9.256;2023-03-23T16:40:52;8.77;;;3.47;;
434;SDS011;204;48.942;9.256;2023-03-23T16:43:18;5.30;;;3.60;;
434;SDS011;204;48.942;9.256;2023-03-23T16:45:44;5.10;;;2.73;;
434;SDS011;204;48.942;9.256;2023-03-23T16:48:11;9.53;;;3.47;;
434;SDS011;204;48.942;9.256;2023-03-23T16:50:38;4.20;;;2.30;;
434;SDS011;204;48.942;9.256;2023-03-23T16:53:05;6.38;;;3.30;;
434;SDS011;204;48.942;9.256;2023-03-23T16:55:32;10.50;;;5.05;;
434;SDS011;204;48.942;9.256;2023-03-23T16:57:59;6.85;;;4.25;;
434;SDS011;204;48.942;9.256;2023-03-23T17:00:25;7.37;;;4.70;;
434;SDS011;204;48.942;9.256;2023-03-23T17:02:51;7.40;;;4.17;;
434;SDS011;204;48.942;9.256;2023-03-23T17:05:21;4.65;;;3.30;;
434;SDS011;204;48.942;9.256;2023-03-23T17:07:48;4.65;;;3.25;;
434;SDS011;204;48.942;9.256;2023-03-23T17:10:15;7.40;;;4.20;;
434;SDS011;204;48.942;9.256;2023-03-23T17:12:42;4.40;;;3.73;;
434;SDS011;204;48.942;9.256;2023-03-23T17:15:08;4.50;;;4.00;;
434;SDS011;204;48.942;9.256;2023-03-23T17:17:35;3.50;;;3.35;;
434;SDS011;204;48.942;9.256;2023-03-23T17:20:01;4.60;;;3.47;;
434;SDS011;204;48.942;9.256;2023-03-23T17:22:28;4.47;;;4.18;;
434;SDS011;204;48.942;9.256;2023-03-23T17:24:53;5.13;;;4.13;;
434;SDS011;204;48.942;9.256;2023-03-23T17:27:21;4.88;;;3.90;;
434;SDS011;204;48.942;9.256;2023-03-23T17:29:47;4.50;;;4.10;;
434;SDS011;204;48.942;9.256;2023-03-23T17:32:12;5.43;;;3.83;;
434;SDS011;204;48.942;9.256;2023-03-23T17:34:38;4.23;;;3.70;;
434;SDS011;204;48.942;9.256;2023-03-23T17:37:04;8.50;;;8.00;;
434;SDS011;204;48.942;9.256;2023-03-23T17:39:30;16.00;;;13.43;;
434;SDS011;204;48.942;9.256;2023-03-23T17:41:57;12.68;;;12.02;;
434;SDS011;204;48.942;9.256;2023-03-23T17:44:23;8.93;;;6.43;;
434;SDS011;204;48.942;9.256;2023-03-23T17:46:49;5.22;;;4.18;;
434;SDS011;204;48.942;9.256;2023-03-23T17:49:15;5.20;;;4.45;;
434;SDS011;204;48.942;9.256;2023-03-23T17:51:41;6.27;;;5.23;;
434;SDS011;204;48.942;9.256;2023-03-23T17:54:07;6.63;;;4.80;;
434;SDS011;204;48.942;9.256;2023-03-23T17:56:32;6.20;;;3.97;;
434;SDS011;204;48.942;9.256;2023-03-23T17:58:58;5.70;;;4.00;;
434;SDS011;204;48.942;9.256;2023-03-23T18:01:24;4.63;;;3.67;;
434;SDS011;204;48.942;9.256;2023-03-23T18:03:50;8.53;;;4.37;;
434;SDS011;204;48.942;9.256;2023-03-23T18:06:15;9.73;;;4.13;;
434;SDS011;204;48.942;9.256;2023-03-23T18:08:41;5.40;;;4.20;;